Portada
METAR-TAF:

METAR-TAF

Aeroports :

Budapest, Hongria

latitud: 47-26N, longitud: 019-16E, altitud: 151 m

Observació

L'informe es va fer fa 21 minuts, a les 00:30 UTC
Vent 3 kt amb direcció variable
Temperatura 18°C
Humitat 83%
Pressió 1017 hPa
Visibilitat 10 km o més
sense núvols per sota de 1500 mi sense presència de cumulonimbus.

METAR: LHBP 200030Z VRB03KT CAVOK 18/15 Q1017 NOSIG

Hora: 02:51 (00:51 UTC)

Pronòstic

L'informe es va fer fa 1 hora i 36 minuts, a les 23:15 UTC
Pronòstic vàlid del 20 a les 00 UTC al 20 a les 24 UTC
Vent 3 kt amb direcció variable
Visibilitat 10 km o més
sense núvols per sota de 1500 mi sense presència de cumulonimbus.
Temporalment
l' 20 a les 00 UTC al 20 a les 03 UTC
Vent 7 kt del Est/Nord-Est
Temporalment
l' 20 a les 13 UTC al 20 a les 18 UTC
Escasses núvols a una alçada de 6500 ft, Cumulus congestus.

TAF: LHBP 192315Z 2000/2024 VRB03KT CAVOK TEMPO 2000/2003 07007KT TEMPO 2013/2018 FEW065TCU

Observacions i pronòstics meteorològics de més de 4000 aeroports (METAR i TAF).

Les estacions disponibles són els punts grocs i vermells al mapa.

Posi el ratolí al punt desitjat per veure el nom de l'estació.

Feu clic per veure les observacions i els pronòstics meteorològics.

Per canviar el mapa: feu clic els botons verds amb una creu de color negre per apropar; al botó verd amb un guió per allunyar la imatge; o en les fletxes verdes per a mapes adjacents.


METAR-TAF: